createdAt,value
2023-01-13T00:01:30.620Z,7.60
2023-01-13T00:03:58.546Z,6.70
2023-01-13T00:06:26.559Z,6.60
2023-01-13T00:08:54.918Z,7.80
2023-01-13T00:11:23.486Z,7.40
2023-01-13T00:13:51.571Z,6.80
2023-01-13T00:16:20.301Z,7.10
2023-01-13T00:18:48.949Z,6.90
2023-01-13T00:21:23.218Z,6.50
2023-01-13T00:23:55.500Z,7.20
2023-01-13T00:26:27.090Z,7.10
2023-01-13T00:28:59.627Z,7.20
2023-01-13T00:33:58.011Z,7.00
2023-01-13T00:36:26.748Z,6.80
2023-01-13T00:38:55.127Z,7.40
2023-01-13T00:41:24.961Z,6.90
2023-01-13T00:43:53.473Z,7.40
2023-01-13T00:46:22.789Z,6.70
2023-01-13T00:48:51.589Z,7.00
2023-01-13T00:51:21.535Z,6.70
2023-01-13T00:53:51.719Z,6.30
2023-01-13T00:56:38.576Z,7.40
2023-01-13T00:59:11.253Z,6.10
2023-01-13T01:01:40.165Z,6.40
2023-01-13T01:04:08.603Z,6.90
2023-01-13T01:06:36.828Z,6.50
2023-01-13T01:09:05.853Z,6.20
2023-01-13T01:11:34.935Z,6.30
2023-01-13T01:14:04.105Z,6.50
2023-01-13T01:16:34.255Z,6.70
2023-01-13T01:19:03.710Z,6.70
2023-01-13T01:21:32.285Z,6.20
2023-01-13T01:24:02.636Z,7.10
2023-01-13T01:26:31.917Z,7.10
2023-01-13T01:29:02.397Z,6.60
2023-01-13T01:31:32.602Z,7.50
2023-01-13T01:34:01.827Z,6.80
2023-01-13T01:36:30.501Z,6.10
2023-01-13T01:39:00.009Z,7.00
2023-01-13T01:41:31.773Z,5.90
2023-01-13T01:44:20.083Z,6.40
2023-01-13T01:46:48.110Z,6.20
2023-01-13T01:49:33.482Z,6.40
2023-01-13T01:52:25.098Z,7.20
2023-01-13T01:55:07.042Z,6.50
2023-01-13T01:57:48.055Z,6.80
2023-01-13T02:00:16.286Z,6.00
2023-01-13T02:02:48.140Z,5.90
2023-01-13T02:07:47.658Z,5.90
2023-01-13T02:10:19.874Z,6.80
2023-01-13T02:12:49.886Z,6.00
2023-01-13T02:15:22.385Z,6.40
2023-01-13T02:18:29.504Z,5.80
2023-01-13T02:21:20.366Z,6.50
2023-01-13T02:24:35.373Z,5.70
2023-01-13T02:27:06.222Z,5.70
2023-01-13T02:30:18.870Z,6.50
2023-01-13T02:32:53.336Z,5.90
2023-01-13T02:35:24.965Z,6.50
2023-01-13T02:37:54.812Z,5.40
2023-01-13T02:40:37.327Z,6.50
2023-01-13T02:43:32.121Z,6.50
2023-01-13T02:46:15.709Z,5.40
2023-01-13T02:48:47.910Z,6.00
2023-01-13T02:51:20.853Z,5.30
2023-01-13T02:54:07.719Z,5.60
2023-01-13T02:56:40.185Z,6.70
2023-01-13T02:59:09.559Z,6.30
2023-01-13T03:01:37.946Z,6.30
2023-01-13T03:04:35.906Z,5.90
2023-01-13T03:07:18.007Z,6.40
2023-01-13T03:09:59.614Z,5.80
2023-01-13T03:13:02.599Z,5.10
2023-01-13T03:15:59.681Z,5.10
2023-01-13T03:18:47.122Z,5.00
2023-01-13T03:21:36.297Z,5.50
2023-01-13T03:24:14.061Z,5.40
2023-01-13T03:26:56.761Z,6.30
2023-01-13T03:29:58.825Z,5.30
2023-01-13T03:32:37.367Z,5.60
2023-01-13T03:35:26.541Z,5.50
2023-01-13T03:38:03.376Z,5.70
2023-01-13T03:40:40.519Z,5.40
2023-01-13T03:43:38.373Z,5.10
2023-01-13T03:46:17.766Z,5.40
2023-01-13T03:48:46.966Z,5.60
2023-01-13T03:51:18.455Z,5.70
2023-01-13T03:53:53.674Z,5.20
2023-01-13T03:56:35.445Z,5.30
2023-01-13T03:59:08.123Z,5.30
2023-01-13T04:02:51.390Z,5.90
2023-01-13T04:05:19.927Z,6.40
2023-01-13T04:08:07.781Z,5.20
2023-01-13T04:10:58.359Z,5.70
2023-01-13T04:13:30.410Z,5.70
2023-01-13T04:18:30.855Z,5.60
2023-01-13T04:21:01.234Z,5.00
2023-01-13T04:23:29.750Z,5.60
2023-01-13T04:25:57.581Z,4.90
2023-01-13T04:28:26.369Z,5.40
2023-01-13T04:34:38.317Z,4.90
2023-01-13T04:37:06.283Z,5.40
2023-01-13T04:39:34.169Z,5.40
2023-01-13T04:42:02.719Z,5.30
2023-01-13T04:44:35.176Z,5.40
2023-01-13T04:47:04.983Z,5.50
2023-01-13T04:49:33.822Z,5.40
2023-01-13T04:52:03.895Z,5.50
2023-01-13T04:54:32.414Z,5.20
2023-01-13T04:57:00.522Z,5.50
2023-01-13T04:59:28.433Z,5.60
2023-01-13T05:01:56.584Z,5.40
2023-01-13T05:04:25.063Z,5.90
2023-01-13T05:06:53.143Z,5.50
2023-01-13T05:09:20.995Z,5.10
2023-01-13T05:12:07.529Z,5.30
2023-01-13T05:14:54.343Z,5.50
2023-01-13T05:17:24.584Z,5.30
2023-01-13T05:19:52.521Z,5.50
2023-01-13T05:22:38.988Z,4.80
2023-01-13T05:25:21.722Z,5.80
2023-01-13T05:27:50.990Z,5.70
2023-01-13T05:30:21.036Z,5.70
2023-01-13T05:32:49.329Z,5.30
2023-01-13T05:35:17.358Z,5.60
2023-01-13T05:37:46.555Z,5.50
2023-01-13T05:40:35.616Z,6.20
2023-01-13T05:43:25.836Z,5.30
2023-01-13T05:46:02.517Z,5.40
2023-01-13T05:48:33.716Z,5.60
2023-01-13T05:51:02.976Z,4.20
2023-01-13T05:53:31.304Z,5.70
2023-01-13T05:55:59.725Z,5.10
2023-01-13T05:58:28.120Z,5.80
2023-01-13T06:01:04.359Z,4.90
2023-01-13T06:03:32.633Z,5.50
2023-01-13T06:06:02.248Z,5.60
2023-01-13T06:08:31.569Z,6.10
2023-01-13T06:10:59.609Z,5.00
2023-01-13T06:13:28.014Z,5.70
2023-01-13T06:15:57.965Z,4.60
2023-01-13T06:18:27.182Z,5.50
2023-01-13T06:20:56.002Z,4.20
2023-01-13T06:23:24.230Z,5.20
2023-01-13T06:25:59.854Z,4.60
2023-01-13T06:28:27.876Z,4.50
2023-01-13T06:30:59.921Z,4.70
2023-01-13T06:33:32.728Z,4.50
2023-01-13T06:36:06.274Z,4.30
2023-01-13T06:38:40.800Z,4.40
2023-01-13T06:41:09.283Z,4.60
2023-01-13T06:43:39.104Z,4.30
2023-01-13T06:46:07.085Z,4.00
2023-01-13T06:48:35.961Z,4.20
2023-01-13T06:51:05.447Z,3.80
2023-01-13T06:53:33.288Z,4.30
2023-01-13T06:56:01.221Z,4.90
2023-01-13T06:58:29.349Z,4.20
2023-01-13T07:01:00.504Z,3.90
2023-01-13T07:03:28.623Z,4.30
2023-01-13T07:05:57.784Z,4.40
2023-01-13T07:08:25.895Z,3.90
2023-01-13T07:10:54.645Z,4.10
2023-01-13T07:13:41.451Z,4.20
2023-01-13T07:16:10.168Z,3.90
2023-01-13T07:18:38.535Z,5.30
2023-01-13T07:21:09.396Z,4.70
2023-01-13T07:23:39.875Z,4.20
2023-01-13T07:26:09.411Z,4.00
2023-01-13T07:28:38.998Z,4.30
2023-01-13T07:31:14.899Z,4.20
2023-01-13T07:33:43.128Z,4.30
2023-01-13T07:36:11.604Z,4.50
2023-01-13T07:38:39.982Z,4.80
2023-01-13T07:41:30.189Z,4.40
2023-01-13T07:43:58.141Z,3.60
2023-01-13T07:46:26.299Z,4.30
2023-01-13T07:48:54.537Z,3.90
2023-01-13T07:51:22.711Z,4.30
2023-01-13T07:53:50.730Z,3.90
2023-01-13T07:56:19.711Z,4.10
2023-01-13T07:58:51.015Z,3.80
2023-01-13T08:01:19.967Z,4.90
2023-01-13T08:03:48.086Z,4.20
2023-01-13T08:06:16.467Z,3.80
2023-01-13T08:08:44.432Z,3.20
2023-01-13T08:11:12.367Z,4.10
2023-01-13T08:13:40.332Z,4.20
2023-01-13T08:16:11.265Z,4.10
2023-01-13T08:18:39.287Z,3.70
2023-01-13T08:21:13.022Z,3.80
2023-01-13T08:23:45.565Z,4.00
2023-01-13T08:26:16.560Z,3.80
2023-01-13T08:28:45.799Z,4.20
2023-01-13T08:31:16.485Z,3.90
2023-01-13T08:33:44.758Z,4.00
2023-01-13T08:36:13.920Z,4.70
2023-01-13T08:38:42.241Z,4.20
2023-01-13T08:41:15.598Z,4.20
2023-01-13T08:43:43.627Z,4.10
2023-01-13T08:46:11.701Z,4.50
2023-01-13T08:48:39.803Z,4.40
2023-01-13T08:51:09.272Z,4.20
2023-01-13T08:53:37.280Z,4.60
2023-01-13T08:56:13.177Z,3.90
2023-01-13T08:58:41.107Z,4.40
2023-01-13T09:01:13.828Z,4.00
2023-01-13T09:03:41.996Z,4.30
2023-01-13T09:06:09.952Z,4.20
2023-01-13T09:08:38.272Z,4.20
2023-01-13T09:11:26.361Z,3.70
2023-01-13T09:13:54.318Z,3.80
2023-01-13T09:16:22.256Z,4.00
2023-01-13T09:18:50.236Z,4.20
2023-01-13T09:21:20.005Z,3.50
2023-01-13T09:23:48.331Z,4.00
2023-01-13T09:26:20.915Z,3.90
2023-01-13T09:28:48.992Z,4.50
2023-01-13T09:31:17.136Z,4.70
2023-01-13T09:34:03.902Z,4.30
2023-01-13T09:36:31.907Z,4.80
2023-01-13T09:38:59.978Z,5.00
2023-01-13T09:41:50.073Z,4.50
2023-01-13T09:44:25.738Z,4.60
2023-01-13T09:47:00.493Z,3.90
2023-01-13T09:49:37.569Z,4.00
2023-01-13T09:52:21.822Z,4.00
2023-01-13T09:54:57.889Z,4.40
2023-01-13T09:57:28.619Z,4.30
2023-01-13T09:59:58.934Z,3.60
2023-01-13T10:02:36.608Z,4.00
2023-01-13T10:05:13.986Z,4.20
2023-01-13T10:07:52.351Z,3.90
2023-01-13T10:10:34.533Z,4.10
2023-01-13T10:15:50.529Z,3.70
2023-01-13T10:18:35.799Z,3.60
2023-01-13T10:21:35.098Z,3.80
2023-01-13T10:24:09.436Z,4.40
2023-01-13T10:26:57.773Z,4.10
2023-01-13T10:29:28.932Z,3.60
2023-01-13T10:31:59.529Z,3.50
2023-01-13T10:34:28.836Z,3.60
2023-01-13T10:37:06.932Z,3.60
2023-01-13T10:39:46.327Z,3.80
2023-01-13T10:42:21.985Z,3.70
2023-01-13T10:44:53.228Z,3.20
2023-01-13T10:47:28.513Z,4.20
2023-01-13T10:50:11.469Z,3.50
2023-01-13T10:52:54.884Z,4.30
2023-01-13T10:55:30.640Z,4.20
2023-01-13T10:58:13.121Z,3.30
2023-01-13T11:04:39.116Z,3.80
2023-01-13T11:07:29.056Z,3.70
2023-01-13T11:10:09.633Z,3.40
2023-01-13T11:12:53.596Z,3.90
2023-01-13T11:15:25.158Z,4.00
2023-01-13T11:18:05.243Z,4.50
2023-01-13T11:20:38.301Z,4.00
2023-01-13T11:23:28.719Z,4.80
2023-01-13T11:26:04.043Z,4.50
2023-01-13T11:28:44.337Z,4.20
2023-01-13T11:31:37.226Z,4.20
2023-01-13T11:34:25.267Z,3.80
2023-01-13T11:36:56.186Z,4.20
2023-01-13T11:39:50.613Z,4.60
2023-01-13T11:42:31.846Z,4.20
2023-01-13T11:45:06.044Z,4.00
2023-01-13T11:47:36.163Z,3.90
2023-01-13T11:50:13.885Z,4.10
2023-01-13T11:52:47.901Z,4.50
2023-01-13T11:55:15.850Z,4.50
2023-01-13T11:58:05.459Z,3.70
2023-01-13T12:00:56.111Z,4.00
2023-01-13T12:03:32.742Z,3.80
2023-01-13T12:06:16.034Z,4.30
2023-01-13T12:08:50.427Z,4.10
2023-01-13T12:12:04.585Z,4.00
2023-01-13T12:14:45.680Z,4.20
2023-01-13T12:17:32.016Z,4.10
2023-01-13T12:20:17.453Z,4.60
2023-01-13T12:22:47.804Z,4.00
2023-01-13T12:25:32.659Z,4.70
2023-01-13T12:28:23.240Z,4.60
2023-01-13T12:30:56.624Z,3.70
2023-01-13T12:33:45.737Z,3.90
2023-01-13T12:36:41.837Z,9.40
2023-01-13T12:39:29.828Z,4.60
2023-01-13T12:42:43.803Z,4.50
2023-01-13T12:45:11.671Z,4.10
2023-01-13T12:47:43.675Z,4.20
2023-01-13T12:50:26.510Z,3.90
2023-01-13T12:52:58.636Z,4.40
2023-01-13T12:58:10.267Z,4.20
2023-01-13T13:00:41.325Z,3.50
2023-01-13T13:03:12.308Z,3.30
2023-01-13T13:05:51.899Z,3.80
2023-01-13T13:08:22.235Z,4.00
2023-01-13T13:11:34.907Z,3.80
2023-01-13T13:14:05.743Z,3.50
2023-01-13T13:16:52.808Z,3.90
2023-01-13T13:19:21.430Z,3.70
2023-01-13T13:22:18.028Z,3.70
2023-01-13T13:24:48.755Z,3.50
2023-01-13T13:27:20.743Z,3.80
2023-01-13T13:30:12.056Z,3.80
2023-01-13T13:32:49.003Z,4.10
2023-01-13T13:35:40.405Z,4.20
2023-01-13T13:38:53.001Z,4.30
2023-01-13T13:41:43.401Z,4.30
2023-01-13T13:45:06.669Z,4.60
2023-01-13T13:47:37.855Z,4.00
2023-01-13T13:50:20.420Z,4.30
2023-01-13T13:53:02.457Z,3.70
2023-01-13T13:55:30.396Z,3.70
2023-01-13T13:57:59.390Z,3.60
2023-01-13T14:00:29.974Z,3.80
2023-01-13T14:03:01.719Z,3.90
2023-01-13T14:05:35.179Z,5.10
2023-01-13T14:08:16.786Z,4.10
2023-01-13T14:10:46.305Z,3.80
2023-01-13T14:13:19.226Z,3.80
2023-01-13T14:15:49.470Z,4.20
2023-01-13T14:18:19.699Z,3.90
2023-01-13T14:21:25.939Z,3.90
2023-01-13T14:23:57.215Z,5.40
2023-01-13T14:26:27.799Z,5.00
2023-01-13T14:28:57.552Z,5.40
2023-01-13T14:31:26.181Z,7.30
2023-01-13T14:33:57.677Z,6.00
2023-01-13T14:36:36.824Z,4.10
2023-01-13T14:39:04.726Z,4.40
2023-01-13T14:41:49.004Z,5.00
2023-01-13T14:44:22.729Z,4.00
2023-01-13T14:46:51.566Z,4.00
2023-01-13T14:49:30.725Z,3.90
2023-01-13T14:52:22.331Z,4.80
2023-01-13T14:55:10.243Z,4.20
2023-01-13T14:57:39.835Z,4.90
2023-01-13T15:00:14.661Z,4.80
2023-01-13T15:02:57.909Z,6.10
2023-01-13T15:05:26.052Z,5.80
2023-01-13T15:08:13.927Z,4.90
2023-01-13T15:11:19.029Z,4.50
2023-01-13T15:13:53.749Z,4.50
2023-01-13T15:16:25.282Z,8.20
2023-01-13T15:18:54.879Z,9.30
2023-01-13T15:21:23.646Z,4.70
2023-01-13T15:23:52.622Z,5.50
2023-01-13T15:26:29.623Z,5.10
2023-01-13T15:28:59.444Z,8.40
2023-01-13T15:31:28.624Z,7.20
2023-01-13T15:33:57.027Z,5.40
2023-01-13T15:36:29.273Z,5.40
2023-01-13T15:41:52.571Z,6.00
2023-01-13T15:44:39.326Z,15.50
2023-01-13T15:47:09.787Z,13.30
2023-01-13T15:49:44.120Z,13.10
2023-01-13T15:52:22.017Z,18.40
2023-01-13T15:54:51.180Z,7.90
2023-01-13T15:57:25.731Z,6.10
2023-01-13T15:59:56.811Z,7.00
2023-01-13T16:02:25.374Z,5.50
2023-01-13T16:04:55.841Z,8.70
2023-01-13T16:07:25.452Z,10.30
2023-01-13T16:09:53.520Z,9.40
2023-01-13T16:12:21.545Z,6.90
2023-01-13T16:14:49.559Z,5.60
2023-01-13T16:17:21.082Z,5.80
2023-01-13T16:19:49.691Z,5.50
2023-01-13T16:22:18.004Z,6.50
2023-01-13T16:24:46.738Z,6.20
2023-01-13T16:27:20.802Z,5.10
2023-01-13T16:29:50.025Z,4.80
2023-01-13T16:32:20.954Z,5.60
2023-01-13T16:34:50.483Z,6.00
2023-01-13T16:37:26.649Z,5.20
2023-01-13T16:39:55.039Z,5.40
2023-01-13T16:42:23.290Z,6.10
2023-01-13T16:44:53.029Z,6.10
2023-01-13T16:47:22.817Z,6.20
2023-01-13T16:49:51.402Z,5.80
2023-01-13T16:52:20.010Z,5.30
2023-01-13T16:54:48.296Z,5.60
2023-01-13T16:57:16.272Z,5.70
2023-01-13T16:59:44.341Z,5.90
2023-01-13T17:02:15.241Z,5.40
2023-01-13T17:04:43.834Z,4.70
2023-01-13T17:07:15.523Z,5.30
2023-01-13T17:09:43.613Z,5.20
2023-01-13T17:12:11.777Z,5.80
2023-01-13T17:14:40.786Z,5.30
2023-01-13T17:17:20.211Z,5.10
2023-01-13T17:19:48.514Z,5.10
2023-01-13T17:22:16.571Z,6.20
2023-01-13T17:24:45.104Z,5.60
2023-01-13T17:27:13.615Z,6.10
2023-01-13T17:29:41.648Z,5.70
2023-01-13T17:32:15.551Z,5.80
2023-01-13T17:34:45.196Z,5.60
2023-01-13T17:37:14.574Z,7.20
2023-01-13T17:39:44.292Z,7.90
2023-01-13T17:42:12.899Z,8.10
2023-01-13T17:44:42.137Z,6.80
2023-01-13T17:47:10.099Z,5.80
2023-01-13T17:49:38.065Z,5.80
2023-01-13T17:52:07.112Z,6.80
2023-01-13T17:54:35.185Z,6.60
2023-01-13T17:57:03.655Z,7.80
2023-01-13T17:59:32.274Z,6.40
2023-01-13T18:02:00.587Z,7.10
2023-01-13T18:04:28.768Z,6.70
2023-01-13T18:06:57.916Z,7.20
2023-01-13T18:09:27.408Z,6.90
2023-01-13T18:11:56.117Z,6.90
2023-01-13T18:14:24.566Z,6.80
2023-01-13T18:16:53.077Z,7.20
2023-01-13T18:19:39.693Z,9.90
2023-01-13T18:22:31.504Z,11.50
2023-01-13T18:25:18.376Z,9.60
2023-01-13T18:27:46.320Z,9.40
2023-01-13T18:30:15.463Z,8.50
2023-01-13T18:32:43.978Z,8.60
2023-01-13T18:35:11.798Z,9.00
2023-01-13T18:37:41.955Z,9.60
2023-01-13T18:40:13.687Z,10.70
2023-01-13T18:42:59.126Z,9.50
2023-01-13T18:45:29.489Z,8.10
2023-01-13T18:48:00.875Z,8.70
2023-01-13T18:50:29.743Z,7.90
2023-01-13T18:52:57.790Z,7.60
2023-01-13T18:55:25.792Z,7.60
2023-01-13T18:57:53.936Z,9.20
2023-01-13T19:04:36.159Z,8.10
2023-01-13T19:07:05.154Z,7.50
2023-01-13T19:09:32.976Z,7.40
2023-01-13T19:12:01.423Z,7.80
2023-01-13T19:14:37.399Z,12.40
2023-01-13T19:17:11.213Z,7.90
2023-01-13T19:19:44.787Z,7.60
2023-01-13T19:22:16.955Z,7.60
2023-01-13T19:24:44.890Z,7.70
2023-01-13T19:27:14.521Z,8.70
2023-01-13T19:29:52.002Z,8.00
2023-01-13T19:32:22.390Z,9.60
2023-01-13T19:34:51.244Z,7.60
2023-01-13T19:37:19.628Z,8.00
2023-01-13T19:39:47.412Z,8.50
2023-01-13T19:42:34.144Z,8.60
2023-01-13T19:45:20.505Z,7.20
2023-01-13T19:47:48.415Z,6.90
2023-01-13T19:50:16.424Z,6.90
2023-01-13T19:52:44.925Z,5.80
2023-01-13T19:55:12.897Z,5.90
2023-01-13T19:57:41.011Z,5.30
2023-01-13T20:00:10.959Z,5.60
2023-01-13T20:02:48.008Z,5.60
2023-01-13T20:05:21.234Z,5.30
2023-01-13T20:07:51.197Z,4.70
2023-01-13T20:10:20.820Z,4.50
2023-01-13T20:12:48.781Z,4.70
2023-01-13T20:15:16.788Z,5.40
2023-01-13T20:17:44.769Z,5.80
2023-01-13T20:20:15.088Z,5.60
2023-01-13T20:22:43.639Z,5.40
2023-01-13T20:25:16.787Z,4.30
2023-01-13T20:27:47.019Z,4.40
2023-01-13T20:30:15.744Z,4.30
2023-01-13T20:32:45.627Z,6.50
2023-01-13T20:35:14.371Z,4.80
2023-01-13T20:37:43.111Z,4.80
2023-01-13T20:40:14.684Z,5.10
2023-01-13T20:42:44.968Z,4.30
2023-01-13T20:45:17.744Z,4.40
2023-01-13T20:47:45.896Z,4.50
2023-01-13T20:50:15.637Z,4.20
2023-01-13T20:52:45.545Z,4.10
2023-01-13T20:55:14.219Z,5.40
2023-01-13T20:57:42.146Z,4.80
2023-01-13T21:00:10.950Z,4.60
2023-01-13T21:02:40.850Z,5.20
2023-01-13T21:05:09.979Z,4.50
2023-01-13T21:07:37.961Z,6.20
2023-01-13T21:10:07.975Z,4.40
2023-01-13T21:12:54.402Z,4.50
2023-01-13T21:15:22.870Z,4.00
2023-01-13T21:18:10.496Z,4.40
2023-01-13T21:20:39.331Z,4.30
2023-01-13T21:23:08.430Z,5.40
2023-01-13T21:25:39.498Z,4.50
2023-01-13T21:28:10.264Z,5.20
2023-01-13T21:30:39.196Z,4.80
2023-01-13T21:33:07.634Z,5.30
2023-01-13T21:35:38.214Z,4.20
2023-01-13T21:38:06.231Z,5.00
2023-01-13T21:40:34.312Z,5.20
2023-01-13T21:43:20.697Z,4.60
2023-01-13T21:46:07.387Z,4.30
2023-01-13T21:48:35.435Z,5.30
2023-01-13T21:51:03.497Z,4.60
2023-01-13T21:53:31.347Z,4.30
2023-01-13T21:55:59.227Z,4.30
2023-01-13T21:58:27.168Z,4.20
2023-01-13T22:00:55.553Z,3.90
2023-01-13T22:03:23.662Z,5.30
2023-01-13T22:05:56.130Z,4.40
2023-01-13T22:08:24.324Z,4.90
2023-01-13T22:10:58.136Z,4.20
2023-01-13T22:13:47.129Z,5.70
2023-01-13T22:16:16.028Z,5.30
2023-01-13T22:18:44.297Z,5.10
2023-01-13T22:21:13.073Z,5.20
2023-01-13T22:23:41.256Z,5.40
2023-01-13T22:26:09.836Z,5.10
2023-01-13T22:28:42.991Z,5.00
2023-01-13T22:31:18.933Z,5.90
2023-01-13T22:33:48.018Z,6.10
2023-01-13T22:36:15.934Z,6.60
2023-01-13T22:38:44.899Z,5.80
2023-01-13T22:41:13.583Z,5.50
2023-01-13T22:43:41.629Z,8.90
2023-01-13T22:46:11.711Z,11.10
2023-01-13T22:48:41.038Z,10.50
2023-01-13T22:51:13.937Z,6.10
2023-01-13T22:53:42.300Z,7.40
2023-01-13T22:56:16.644Z,6.70
2023-01-13T22:58:46.470Z,6.30
2023-01-13T23:01:16.817Z,6.50
2023-01-13T23:03:47.656Z,6.90
2023-01-13T23:06:18.173Z,6.30
2023-01-13T23:08:46.513Z,7.90
2023-01-13T23:11:17.972Z,7.00
2023-01-13T23:13:46.500Z,3.70
2023-01-13T23:16:17.140Z,6.20
2023-01-13T23:18:47.939Z,6.80
2023-01-13T23:21:19.281Z,8.40
2023-01-13T23:23:47.971Z,7.50
2023-01-13T23:26:17.023Z,6.40
2023-01-13T23:28:45.410Z,7.90
2023-01-13T23:31:19.811Z,7.30
2023-01-13T23:33:48.840Z,6.80
2023-01-13T23:36:23.370Z,7.60
2023-01-13T23:38:52.916Z,6.60
2023-01-13T23:41:24.113Z,6.70
2023-01-13T23:43:54.868Z,5.70
2023-01-13T23:46:23.554Z,6.20
2023-01-13T23:48:58.240Z,6.40
2023-01-13T23:51:32.164Z,6.20
2023-01-13T23:54:00.386Z,5.70
2023-01-13T23:56:30.697Z,5.80
2023-01-13T23:58:59.030Z,5.20
